»·PEaware :: N791JR KSNA-KRNM

N791JR :: KSNA-KRNM

FLIGHT INFORMATION

Flight Status: Arrived
Operator: Privately registered:
United States
More flights under this callsign
Pilot: Carson T. (20437)
Aircraft: CESSNA 172 SKYHAWK
(C172)
More flights by this aircraft type
Origin: KSNA John Wayne-Orange Co
United States
Destination: KRNM Ramona
United States
More flights between these airports :: More routes between these airports
Route: V23 OCN V208 JLI
File this flight plan on PilotEdge
Remarks: TEC route CSTP32, I-4 Rating
Altitude:
(Current/Filed)
7,000ft
Speed:
(Current/Filed)
120kts
Departed: 07-Nov-18 03:22 PM
Arrived: 07-Nov-18 03:58 PM
Distance/Time
Traveled:
61nm/0:36
Distance/Time
To Go:
Arrived

Flight Plot

Page will automatically refresh every two minutes.


Map Options




Map Legend


Flown Route
Filed Route
Departure Airport
Arrival Airport
Navaid (VOR, NDB)
Fix

Horizontal Profiles

Position Reports

Time Latitude Longitude Heading Altitude Ground
Speed
07-Nov-18 15:12 33.675246 -117.871611 38 59ft 0kts
07-Nov-18 15:13 33.675247 -117.871610 37 59ft 0kts
07-Nov-18 15:14 33.675246 -117.871611 37 59ft 0kts
07-Nov-18 15:15 33.675246 -117.871611 37 59ft 0kts
07-Nov-18 15:16 33.675246 -117.871611 37 59ft 0kts
07-Nov-18 15:17 33.675246 -117.871611 37 59ft 0kts
07-Nov-18 15:18 33.675246 -117.871611 37 59ft 0kts
07-Nov-18 15:19 33.675246 -117.871611 37 59ft 0kts
07-Nov-18 15:20 33.675246 -117.871611 37 59ft 0kts
07-Nov-18 15:21 33.675287 -117.871520 120 59ft 1kts
07-Nov-18 15:22 33.677381 -117.869249 28 59ft 15kts
07-Nov-18 15:23 33.681272 -117.866713 89 59ft 11kts
07-Nov-18 15:24 33.681213 -117.866445 112 59ft 0kts
07-Nov-18 15:25 33.677684 -117.867539 205 75ft 70kts
07-Nov-18 15:26 33.657696 -117.878961 186 1068ft 82kts
07-Nov-18 15:27 33.635022 -117.881917 185 2059ft 82kts
07-Nov-18 15:28 33.612802 -117.884602 185 3046ft 79kts
07-Nov-18 15:29 33.591055 -117.886865 185 3964ft 80kts
07-Nov-18 15:30 33.569090 -117.888871 185 4841ft 82kts
07-Nov-18 15:31 33.545210 -117.890890 185 5647ft 89kts
07-Nov-18 15:32 33.520835 -117.892692 179 6433ft 89kts
07-Nov-18 15:33 33.506420 -117.870091 111 7039ft 103kts
07-Nov-18 15:34 33.491973 -117.834066 111 7024ft 130kts
07-Nov-18 15:35 33.476451 -117.794710 111 7023ft 131kts
07-Nov-18 15:36 33.460804 -117.754753 111 7025ft 133kts
07-Nov-18 15:37 33.445231 -117.714439 111 7027ft 135kts
07-Nov-18 15:38 33.429930 -117.673890 111 7029ft 137kts
07-Nov-18 15:39 33.414762 -117.632504 111 7031ft 139kts
07-Nov-18 15:40 33.399946 -117.589789 129 7026ft 138kts
07-Nov-18 15:41 33.371822 -117.559250 150 7034ft 137kts
07-Nov-18 15:42 33.341333 -117.531859 142 7033ft 139kts
07-Nov-18 15:43 33.312697 -117.501183 138 7032ft 139kts
07-Nov-18 15:44 33.284969 -117.469265 137 7030ft 139kts
07-Nov-18 15:45 33.261807 -117.433283 120 7030ft 138kts
07-Nov-18 15:46 33.242770 -117.393290 120 7030ft 139kts
07-Nov-18 15:47 33.223863 -117.353263 120 7030ft 139kts
07-Nov-18 15:48 33.205194 -117.313626 120 7028ft 138kts
07-Nov-18 15:49 33.186317 -117.273646 120 7030ft 138kts
07-Nov-18 15:50 33.167369 -117.233604 120 7032ft 139kts
07-Nov-18 15:51 33.148146 -117.192822 120 6541ft 143kts
07-Nov-18 15:52 33.128994 -117.151496 120 5843ft 142kts
07-Nov-18 15:53 33.110287 -117.110587 120 5148ft 140kts
07-Nov-18 15:54 33.091704 -117.070395 120 4452ft 138kts
07-Nov-18 15:55 33.073508 -117.031803 120 4006ft 122kts
07-Nov-18 15:56 33.058174 -116.999726 118 3972ft 104kts
07-Nov-18 15:57 33.049676 -116.967678 103 3544ft 99kts
07-Nov-18 15:58 33.038510 -116.936640 113 3048ft 98kts
07-Nov-18 15:59 33.029520 -116.910581 105 2627ft 75kts
07-Nov-18 16:00 33.037898 -116.906443 280 1426ft 68kts
07-Nov-18 16:01 33.039177 -116.912439 13 1391ft 0kts
07-Nov-18 16:02 33.039738 -116.911301 117 1393ft 0kts
07-Nov-18 16:03 33.039738 -116.911301 117 1393ft 0kts
07-Nov-18 16:04 33.039738 -116.911301 117 1393ft 0kts
07-Nov-18 16:05 33.039738 -116.911301 117 1393ft 0kts
07-Nov-18 16:06 33.039738 -116.911301 117 1393ft 0kts
07-Nov-18 16:07 33.039738 -116.911301 117 1393ft 0kts
07-Nov-18 16:08 33.039738 -116.911301 117 1393ft 0kts
07-Nov-18 16:09 33.039738 -116.911301 117 1393ft 0kts
07-Nov-18 16:10 33.039738 -116.911301 117 1393ft 0kts
07-Nov-18 16:11 33.039738 -116.911301 117 1393ft 0kts
07-Nov-18 16:12 33.039738 -116.911301 117 1393ft 0kts
07-Nov-18 16:13 33.039738 -116.911301 117 1393ft 0kts
07-Nov-18 16:14 33.039738 -116.911301 117 1393ft 0kts
07-Nov-18 16:15 33.039738 -116.911301 117 1393ft 0kts

Navigation Log

Ident Type
1. KSNA Airport
2. OCN Navaid
3. VISTA Fix
4. ROBNN Fix
5. BONDO Fix
6. JLI Navaid
7. KRNM Airport